createdAt,value
2019-02-22T00:00:52.346Z,0.00
2019-02-22T00:01:52.335Z,0.00
2019-02-22T00:02:52.357Z,0.00
2019-02-22T00:03:52.309Z,0.00
2019-02-22T00:04:52.323Z,0.00
2019-02-22T00:05:52.285Z,0.00
2019-02-22T00:06:52.290Z,0.00
2019-02-22T00:07:52.271Z,0.00
2019-02-22T00:08:52.298Z,0.00
2019-02-22T00:09:52.251Z,0.00
2019-02-22T00:10:52.246Z,0.00
2019-02-22T00:11:52.262Z,0.00
2019-02-22T00:12:52.241Z,0.00
2019-02-22T00:13:52.207Z,0.00
2019-02-22T00:14:52.241Z,0.00
2019-02-22T00:15:52.190Z,0.00
2019-02-22T00:16:52.182Z,0.00
2019-02-22T00:17:52.171Z,0.00
2019-02-22T00:18:52.187Z,0.00
2019-02-22T00:19:52.150Z,0.00
2019-02-22T00:20:52.178Z,0.00
2019-02-22T00:22:02.550Z,0.00
2019-02-22T00:22:52.115Z,0.00
2019-02-22T00:23:52.108Z,0.00
2019-02-22T00:24:52.102Z,0.00
2019-02-22T00:25:52.089Z,0.00
2019-02-22T00:26:52.130Z,0.00
2019-02-22T00:27:52.067Z,0.00
2019-02-22T00:28:52.054Z,0.00
2019-02-22T00:29:52.074Z,0.00
2019-02-22T00:30:52.041Z,0.00
2019-02-22T00:31:52.045Z,0.00
2019-02-22T00:32:52.037Z,0.00
2019-02-22T00:33:52.018Z,0.00
2019-02-22T00:34:52.127Z,0.00
2019-02-22T00:35:52.151Z,0.00
2019-02-22T00:36:52.164Z,0.00
2019-02-22T00:37:51.997Z,0.00
2019-02-22T00:38:51.957Z,0.00
2019-02-22T00:39:51.976Z,0.00
2019-02-22T00:40:51.939Z,0.00
2019-02-22T00:41:51.926Z,0.00
2019-02-22T00:42:51.943Z,0.00
2019-02-22T00:43:51.982Z,0.00
2019-02-22T00:44:51.901Z,0.00
2019-02-22T00:45:51.896Z,0.00
2019-02-22T00:46:51.876Z,0.00
2019-02-22T00:47:51.891Z,0.00
2019-02-22T00:48:51.857Z,0.00
2019-02-22T00:49:51.891Z,0.00
2019-02-22T00:50:51.841Z,0.00
2019-02-22T00:51:51.829Z,0.00
2019-02-22T00:53:02.277Z,0.00
2019-02-22T00:53:51.847Z,0.00
2019-02-22T00:54:51.825Z,0.00
2019-02-22T00:55:51.833Z,0.00
2019-02-22T00:56:51.778Z,0.00
2019-02-22T00:57:51.772Z,0.00
2019-02-22T00:58:51.762Z,0.00
2019-02-22T00:59:51.753Z,0.00
2019-02-22T01:00:51.748Z,0.00
2019-02-22T01:01:51.767Z,0.00
2019-02-22T01:02:51.715Z,0.00
2019-02-22T01:03:51.714Z,0.00
2019-02-22T01:04:51.698Z,0.00
2019-02-22T01:05:51.701Z,0.00
2019-02-22T01:06:51.680Z,0.00
2019-02-22T01:07:51.736Z,0.00
2019-02-22T01:08:51.664Z,0.00
2019-02-22T01:09:51.653Z,0.00
2019-02-22T01:10:51.635Z,0.00
2019-02-22T01:11:51.643Z,0.00
2019-02-22T01:12:51.619Z,0.00
2019-02-22T01:13:51.657Z,0.00
2019-02-22T01:14:51.609Z,0.00
2019-02-22T01:15:51.594Z,0.00
2019-02-22T01:16:51.574Z,0.00
2019-02-22T01:17:51.576Z,0.00
2019-02-22T01:18:51.562Z,0.00
2019-02-22T01:19:51.582Z,0.00
2019-02-22T01:20:54.342Z,0.00
2019-02-22T01:21:51.525Z,0.00
2019-02-22T01:22:51.528Z,0.00
2019-02-22T01:24:01.597Z,0.00
2019-02-22T01:24:51.497Z,0.00
2019-02-22T01:25:51.531Z,0.00
2019-02-22T01:26:51.483Z,0.00
2019-02-22T01:27:51.473Z,0.00
2019-02-22T01:28:51.471Z,0.00
2019-02-22T01:29:51.461Z,0.00
2019-02-22T01:30:51.437Z,0.00
2019-02-22T01:31:51.561Z,0.00
2019-02-22T01:32:51.609Z,0.00
2019-02-22T01:33:54.005Z,0.00
2019-02-22T01:34:51.421Z,0.00
2019-02-22T01:35:51.390Z,0.00
2019-02-22T01:36:51.398Z,0.00
2019-02-22T01:37:51.409Z,0.00
2019-02-22T01:38:51.365Z,0.00
2019-02-22T01:39:51.359Z,0.00
2019-02-22T01:40:51.340Z,0.00
2019-02-22T01:41:51.985Z,0.00
2019-02-22T01:42:51.321Z,0.00
2019-02-22T01:43:51.502Z,0.00
2019-02-22T01:44:51.299Z,0.00
2019-02-22T01:45:51.283Z,0.00
2019-02-22T01:46:51.277Z,0.00
2019-02-22T01:47:51.265Z,0.00
2019-02-22T01:48:51.262Z,0.00
2019-02-22T01:49:51.306Z,0.00
2019-02-22T01:50:51.233Z,0.00
2019-02-22T01:51:51.233Z,0.00
2019-02-22T01:52:51.221Z,0.00
2019-02-22T01:53:53.879Z,0.00
2019-02-22T01:55:01.546Z,0.00
2019-02-22T01:55:51.188Z,0.00
2019-02-22T01:56:51.176Z,0.00
2019-02-22T01:57:51.171Z,0.00
2019-02-22T01:58:51.162Z,0.00
2019-02-22T01:59:51.177Z,0.00
2019-02-22T02:00:51.174Z,0.00
2019-02-22T02:01:51.128Z,0.00
2019-02-22T02:02:51.145Z,0.00
2019-02-22T02:03:51.108Z,0.00
2019-02-22T02:04:51.101Z,0.00
2019-02-22T02:05:51.105Z,0.00
2019-02-22T02:06:51.101Z,0.00
2019-02-22T02:07:51.062Z,0.00
2019-02-22T02:08:51.062Z,0.00
2019-02-22T02:09:51.045Z,0.00
2019-02-22T02:10:54.107Z,0.00
2019-02-22T02:11:51.025Z,0.00
2019-02-22T02:12:51.061Z,0.00
2019-02-22T02:13:51.003Z,0.00
2019-02-22T02:14:50.996Z,0.00
2019-02-22T02:15:50.995Z,0.00
2019-02-22T02:16:50.995Z,0.00
2019-02-22T02:17:50.966Z,0.00
2019-02-22T02:18:50.999Z,0.00
2019-02-22T02:19:50.945Z,0.00
2019-02-22T02:20:50.960Z,0.00
2019-02-22T02:21:50.930Z,0.00
2019-02-22T02:22:50.997Z,0.00
2019-02-22T02:23:50.906Z,0.00
2019-02-22T02:24:50.935Z,0.00
2019-02-22T02:26:02.053Z,0.00
2019-02-22T02:26:50.932Z,0.00
2019-02-22T02:27:50.870Z,0.00
2019-02-22T02:28:51.744Z,0.00
2019-02-22T02:29:50.864Z,0.00
2019-02-22T02:30:51.052Z,0.00
2019-02-22T02:31:50.824Z,0.00
2019-02-22T02:32:50.821Z,0.00
2019-02-22T02:33:50.829Z,0.00
2019-02-22T02:34:50.801Z,0.00
2019-02-22T02:35:50.790Z,0.00
2019-02-22T02:36:50.794Z,0.00
2019-02-22T02:37:50.769Z,0.00
2019-02-22T02:38:50.798Z,0.00
2019-02-22T02:39:50.750Z,0.00
2019-02-22T02:40:50.739Z,0.00
2019-02-22T02:41:50.725Z,0.00
2019-02-22T02:42:50.764Z,0.00
2019-02-22T02:43:50.702Z,0.00
2019-02-22T02:44:50.723Z,0.00
2019-02-22T02:45:50.688Z,0.00
2019-02-22T02:46:50.672Z,0.00
2019-02-22T02:47:51.540Z,0.00
2019-02-22T02:48:50.677Z,0.00
2019-02-22T02:49:50.651Z,0.00
2019-02-22T02:50:50.641Z,0.00
2019-02-22T02:51:50.647Z,0.00
2019-02-22T02:52:50.628Z,0.00
2019-02-22T02:53:50.605Z,0.00
2019-02-22T02:54:50.630Z,0.00
2019-02-22T02:55:50.581Z,0.00
2019-02-22T02:57:01.838Z,0.00
2019-02-22T02:57:50.570Z,0.00
2019-02-22T02:58:50.554Z,0.00
2019-02-22T02:59:50.557Z,0.00
2019-02-22T03:00:50.578Z,0.00
2019-02-22T03:01:50.559Z,0.00
2019-02-22T03:02:50.517Z,0.00
2019-02-22T03:03:50.510Z,0.00
2019-02-22T03:04:50.517Z,0.00
2019-02-22T03:05:50.490Z,0.00
2019-02-22T03:06:50.602Z,0.00
2019-02-22T03:07:50.465Z,0.00
2019-02-22T03:08:50.461Z,0.00
2019-02-22T03:09:50.464Z,0.00
2019-02-22T03:10:50.436Z,0.00
2019-02-22T03:11:50.428Z,0.00
2019-02-22T03:12:50.581Z,0.00
2019-02-22T03:13:50.403Z,0.00
2019-02-22T03:14:50.400Z,0.00
2019-02-22T03:15:50.384Z,0.00
2019-02-22T03:16:50.400Z,0.00
2019-02-22T03:17:50.370Z,0.00
2019-02-22T03:18:50.390Z,0.00
2019-02-22T03:19:50.343Z,0.00
2019-02-22T03:20:50.343Z,0.00
2019-02-22T03:21:50.327Z,0.00
2019-02-22T03:22:50.324Z,0.00
2019-02-22T03:23:50.311Z,0.00
2019-02-22T03:24:53.608Z,0.00
2019-02-22T03:25:50.292Z,0.00
2019-02-22T03:26:50.280Z,0.00
2019-02-22T03:28:00.905Z,0.00
2019-02-22T03:28:50.256Z,0.00
2019-02-22T03:29:50.242Z,0.00
2019-02-22T03:30:50.445Z,0.00
2019-02-22T03:31:50.240Z,0.00
2019-02-22T03:32:50.217Z,0.00
2019-02-22T03:33:50.237Z,0.00
2019-02-22T03:34:50.199Z,0.00
2019-02-22T03:35:50.185Z,0.00
2019-02-22T03:36:50.240Z,0.00
2019-02-22T03:37:50.168Z,0.00
2019-02-22T03:38:50.157Z,0.00
2019-02-22T03:39:50.146Z,0.00
2019-02-22T03:40:50.131Z,0.00
2019-02-22T03:41:50.143Z,0.00
2019-02-22T03:42:50.151Z,0.00
2019-02-22T03:43:50.107Z,0.00
2019-02-22T03:44:50.093Z,0.00
2019-02-22T03:45:50.089Z,0.00
2019-02-22T03:46:50.071Z,0.00
2019-02-22T03:47:50.081Z,0.00
2019-02-22T03:48:50.088Z,0.00
2019-02-22T03:49:50.041Z,0.00
2019-02-22T03:50:50.033Z,0.00
2019-02-22T03:51:50.038Z,0.00
2019-02-22T03:52:50.019Z,0.00
2019-02-22T03:53:50.147Z,0.00
2019-02-22T03:54:50.007Z,0.00
2019-02-22T03:55:49.991Z,0.00
2019-02-22T03:56:49.982Z,0.00
2019-02-22T03:57:49.967Z,0.00
2019-02-22T03:59:00.650Z,0.00
2019-02-22T03:59:51.151Z,0.00
2019-02-22T04:00:49.936Z,0.00
2019-02-22T04:01:49.930Z,0.00
2019-02-22T04:02:49.925Z,0.00
2019-02-22T04:03:49.956Z,0.00
2019-02-22T04:04:49.920Z,0.00
2019-02-22T04:05:49.891Z,0.00
2019-02-22T04:06:49.900Z,0.00
2019-02-22T04:07:49.886Z,0.00
2019-02-22T04:08:49.871Z,0.00
2019-02-22T04:09:49.874Z,0.00
2019-02-22T04:10:50.013Z,0.00
2019-02-22T04:11:49.825Z,0.00
2019-02-22T04:12:49.821Z,0.00
2019-02-22T04:13:49.808Z,0.00
2019-02-22T04:14:49.812Z,0.00
2019-02-22T04:15:49.785Z,0.00
2019-02-22T04:16:49.818Z,0.00
2019-02-22T04:17:49.768Z,0.00
2019-02-22T04:18:49.758Z,0.00
2019-02-22T04:19:49.755Z,0.00
2019-02-22T04:20:49.768Z,0.00
2019-02-22T04:21:49.723Z,0.00
2019-02-22T04:22:49.756Z,0.00
2019-02-22T04:23:49.714Z,0.00
2019-02-22T04:24:49.697Z,0.00
2019-02-22T04:25:49.689Z,0.00
2019-02-22T04:26:49.691Z,0.00
2019-02-22T04:27:49.666Z,0.00
2019-02-22T04:28:49.658Z,0.00
2019-02-22T04:30:02.109Z,0.00
2019-02-22T04:30:49.631Z,0.00
2019-02-22T04:31:49.624Z,0.00
2019-02-22T04:32:49.611Z,0.00
2019-02-22T04:33:49.670Z,0.00
2019-02-22T04:34:49.592Z,0.00
2019-02-22T04:35:49.582Z,0.00
2019-02-22T04:36:49.605Z,0.00
2019-02-22T04:37:49.563Z,0.00
2019-02-22T04:38:49.552Z,0.00
2019-02-22T04:39:49.582Z,0.00
2019-02-22T04:40:49.537Z,0.00
2019-02-22T04:41:57.701Z,0.00
2019-02-22T04:42:50.517Z,0.00
2019-02-22T04:43:49.504Z,0.00
2019-02-22T04:44:49.498Z,0.00
2019-02-22T04:45:49.500Z,0.00
2019-02-22T04:46:49.478Z,0.00
2019-02-22T04:47:49.482Z,0.00
2019-02-22T04:48:49.459Z,0.00
2019-02-22T04:49:49.441Z,0.00
2019-02-22T04:50:49.443Z,0.00
2019-02-22T04:51:49.446Z,0.00
2019-02-22T04:52:49.421Z,0.00
2019-02-22T04:53:49.427Z,0.00
2019-02-22T04:54:49.396Z,0.00
2019-02-22T04:55:49.383Z,0.00
2019-02-22T04:56:49.371Z,0.00
2019-02-22T04:57:49.402Z,0.00
2019-02-22T04:58:49.353Z,0.00
2019-02-22T04:59:49.370Z,0.00
2019-02-22T05:00:59.219Z,0.00
2019-02-22T05:01:49.319Z,0.00
2019-02-22T05:02:49.330Z,0.00
2019-02-22T05:03:49.334Z,0.00
2019-02-22T05:04:49.299Z,0.00
2019-02-22T05:05:49.287Z,0.00
2019-02-22T05:06:49.355Z,0.00
2019-02-22T05:07:49.269Z,0.00
2019-02-22T05:08:49.268Z,0.00
2019-02-22T05:09:49.267Z,0.00
2019-02-22T05:10:49.270Z,0.00
2019-02-22T05:11:49.221Z,0.00
2019-02-22T05:12:49.224Z,0.00
2019-02-22T05:13:49.219Z,0.00
2019-02-22T05:14:49.206Z,0.00
2019-02-22T05:15:49.194Z,0.00
2019-02-22T05:16:49.176Z,0.00
2019-02-22T05:17:49.197Z,5.62
2019-02-22T05:18:49.171Z,5.62
2019-02-22T05:19:49.149Z,5.62
2019-02-22T05:20:49.184Z,5.62
2019-02-22T05:21:49.146Z,5.62
2019-02-22T05:22:49.117Z,5.62
2019-02-22T05:23:49.109Z,5.62
2019-02-22T05:24:49.094Z,5.62
2019-02-22T05:25:49.129Z,11.25
2019-02-22T05:26:49.076Z,11.25
2019-02-22T05:27:49.107Z,11.25
2019-02-22T05:28:49.058Z,11.25
2019-02-22T05:29:49.055Z,11.25
2019-02-22T05:30:49.040Z,11.25
2019-02-22T05:31:59.491Z,16.88
2019-02-22T05:32:49.017Z,16.88
2019-02-22T05:33:49.178Z,16.88
2019-02-22T05:34:49.001Z,16.88
2019-02-22T05:35:48.983Z,22.50
2019-02-22T05:36:48.974Z,22.50
2019-02-22T05:37:48.966Z,22.50
2019-02-22T05:38:48.954Z,22.50
2019-02-22T05:39:48.973Z,22.50
2019-02-22T05:40:48.943Z,28.12
2019-02-22T05:41:48.936Z,28.12
2019-02-22T05:42:49.037Z,28.12
2019-02-22T05:43:48.902Z,28.12
2019-02-22T05:44:48.893Z,33.75
2019-02-22T05:45:48.927Z,33.75
2019-02-22T05:46:59.663Z,33.75
2019-02-22T05:47:49.873Z,39.38
2019-02-22T05:48:48.878Z,39.38
2019-02-22T05:49:48.849Z,39.38
2019-02-22T05:50:48.832Z,39.38
2019-02-22T05:51:48.871Z,45.00
2019-02-22T05:52:48.811Z,45.00
2019-02-22T05:53:48.812Z,45.00
2019-02-22T05:54:48.801Z,50.62
2019-02-22T05:55:48.822Z,50.62
2019-02-22T05:56:48.795Z,50.62
2019-02-22T05:57:48.776Z,50.62
2019-02-22T05:58:48.760Z,56.25
2019-02-22T05:59:48.850Z,56.25
2019-02-22T06:00:48.734Z,56.25
2019-02-22T06:01:48.728Z,61.88
2019-02-22T06:02:59.224Z,61.88
2019-02-22T06:03:48.701Z,61.88
2019-02-22T06:04:48.700Z,67.50
2019-02-22T06:05:49.694Z,67.50
2019-02-22T06:06:48.697Z,67.50
2019-02-22T06:07:48.663Z,67.50
2019-02-22T06:08:48.743Z,73.12
2019-02-22T06:09:48.646Z,73.12
2019-02-22T06:10:48.634Z,73.12
2019-02-22T06:11:48.625Z,78.75
2019-02-22T06:12:48.614Z,78.75
2019-02-22T06:13:48.604Z,78.75
2019-02-22T06:14:48.640Z,78.75
2019-02-22T06:15:48.584Z,84.38
2019-02-22T06:16:48.619Z,84.38
2019-02-22T06:17:48.567Z,84.38
2019-02-22T06:18:48.576Z,90.00
2019-02-22T06:19:48.597Z,90.00
2019-02-22T06:20:48.569Z,90.00
2019-02-22T06:21:48.522Z,95.62
2019-02-22T06:22:48.524Z,95.62
2019-02-22T06:23:48.503Z,95.62
2019-02-22T06:24:48.500Z,95.62
2019-02-22T06:25:48.513Z,101.25
2019-02-22T06:26:48.650Z,101.25
2019-02-22T06:27:48.464Z,101.25
2019-02-22T06:28:48.454Z,106.88
2019-02-22T06:29:49.729Z,106.88
2019-02-22T06:30:48.438Z,106.88
2019-02-22T06:31:48.422Z,106.88
2019-02-22T06:32:48.424Z,112.50
2019-02-22T06:33:58.917Z,112.50
2019-02-22T06:34:48.396Z,112.50
2019-02-22T06:35:48.389Z,112.50
2019-02-22T06:37:00.824Z,118.12
2019-02-22T06:37:49.435Z,118.12
2019-02-22T06:38:48.362Z,118.12
2019-02-22T06:39:48.350Z,123.75
2019-02-22T06:40:48.447Z,123.75
2019-02-22T06:41:48.332Z,123.75
2019-02-22T06:42:48.313Z,123.75
2019-02-22T06:43:48.354Z,129.38
2019-02-22T06:44:48.301Z,129.38
2019-02-22T06:45:48.332Z,129.38
2019-02-22T06:46:48.279Z,129.38
2019-02-22T06:47:48.263Z,135.00
2019-02-22T06:48:48.254Z,135.00
2019-02-22T06:49:48.281Z,135.00
2019-02-22T06:50:48.237Z,135.00
2019-02-22T06:51:48.234Z,140.62
2019-02-22T06:52:48.215Z,140.62
2019-02-22T06:53:48.203Z,140.62
2019-02-22T06:54:48.196Z,146.25
2019-02-22T06:55:48.228Z,146.25
2019-02-22T06:56:48.184Z,146.25
2019-02-22T06:57:48.206Z,146.25
2019-02-22T06:58:48.160Z,151.88
2019-02-22T06:59:48.511Z,151.88
2019-02-22T07:00:48.139Z,151.88
2019-02-22T07:01:50.051Z,151.88
2019-02-22T07:02:48.140Z,157.50
2019-02-22T07:03:48.118Z,157.50
2019-02-22T07:04:58.350Z,157.50
2019-02-22T07:05:48.094Z,157.50
2019-02-22T07:06:48.074Z,163.12
2019-02-22T07:07:48.111Z,163.12
2019-02-22T07:08:48.092Z,163.12
2019-02-22T07:09:48.088Z,163.12
2019-02-22T07:10:48.120Z,168.75
2019-02-22T07:11:48.037Z,168.75
2019-02-22T07:12:56.525Z,168.75
2019-02-22T07:13:49.100Z,168.75
2019-02-22T07:14:47.989Z,174.38
2019-02-22T07:15:48.033Z,174.38
2019-02-22T07:16:48.174Z,174.38
2019-02-22T07:17:47.965Z,174.38
2019-02-22T07:18:49.894Z,180.00
2019-02-22T07:19:48.237Z,180.00
2019-02-22T07:20:48.046Z,180.00
2019-02-22T07:21:52.450Z,180.00
2019-02-22T07:22:48.909Z,185.62
2019-02-22T07:23:47.899Z,185.62
2019-02-22T07:24:48.079Z,185.62
2019-02-22T07:25:48.070Z,185.62
2019-02-22T07:26:48.075Z,191.25
2019-02-22T07:27:47.858Z,191.25
2019-02-22T07:28:47.848Z,191.25
2019-02-22T07:29:48.071Z,191.25
2019-02-22T07:30:48.075Z,196.88
2019-02-22T07:31:48.078Z,196.88
2019-02-22T07:32:48.165Z,196.88
2019-02-22T07:33:47.806Z,196.88
2019-02-22T07:34:47.801Z,202.50
2019-02-22T07:35:57.804Z,202.50
2019-02-22T07:36:48.186Z,202.50
2019-02-22T07:37:47.760Z,202.50
2019-02-22T07:38:48.064Z,208.12
2019-02-22T07:39:47.776Z,208.12
2019-02-22T07:40:48.053Z,208.12
2019-02-22T07:41:48.044Z,213.75
2019-02-22T07:42:47.708Z,213.75
2019-02-22T07:43:47.705Z,213.75
2019-02-22T07:44:47.755Z,213.75
2019-02-22T07:45:47.683Z,219.38
2019-02-22T07:46:47.670Z,219.38
2019-02-22T07:47:47.662Z,219.38
2019-02-22T07:48:47.646Z,225.00
2019-02-22T07:49:47.664Z,225.00
2019-02-22T07:50:56.881Z,225.00
2019-02-22T07:51:48.617Z,230.62
2019-02-22T07:52:47.760Z,225.00
2019-02-22T07:53:47.600Z,225.00
2019-02-22T07:54:47.589Z,225.00
2019-02-22T07:55:47.606Z,225.00
2019-02-22T07:56:47.565Z,230.62
2019-02-22T07:57:47.560Z,230.62
2019-02-22T07:58:47.547Z,230.62
2019-02-22T07:59:47.538Z,230.62
2019-02-22T08:00:47.524Z,236.25
2019-02-22T08:01:48.292Z,236.25
2019-02-22T08:02:47.502Z,236.25
2019-02-22T08:03:47.494Z,247.50
2019-02-22T08:04:47.498Z,241.88
2019-02-22T08:05:47.490Z,241.88
2019-02-22T08:07:00.280Z,241.88
2019-02-22T08:07:54.450Z,247.50
2019-02-22T08:08:48.430Z,247.50
2019-02-22T08:09:47.430Z,247.50
2019-02-22T08:10:47.562Z,247.50
2019-02-22T08:11:48.161Z,253.12
2019-02-22T08:12:47.598Z,253.12
2019-02-22T08:13:47.397Z,253.12
2019-02-22T08:14:47.377Z,253.12
2019-02-22T08:15:47.380Z,264.38
2019-02-22T08:16:47.361Z,258.75
2019-02-22T08:17:47.353Z,258.75
2019-02-22T08:18:47.383Z,264.38
2019-02-22T08:19:55.534Z,264.38
2019-02-22T08:20:47.320Z,264.38
2019-02-22T08:21:54.311Z,264.38
2019-02-22T08:22:47.350Z,270.00
2019-02-22T08:23:54.383Z,270.00
2019-02-22T08:24:47.276Z,275.62
2019-02-22T08:25:47.359Z,275.62
2019-02-22T08:26:47.253Z,275.62
2019-02-22T08:27:54.492Z,309.38
2019-02-22T08:28:47.235Z,579.38
2019-02-22T08:29:47.294Z,973.12
2019-02-22T08:30:47.222Z,1366.88
2019-02-22T08:31:47.204Z,1586.25
2019-02-22T08:32:48.108Z,1563.75
2019-02-22T08:33:47.462Z,1591.88
2019-02-22T08:34:47.215Z,1631.25
2019-02-22T08:35:47.196Z,1608.75
2019-02-22T08:36:47.156Z,1597.50
2019-02-22T08:37:47.147Z,1625.62
2019-02-22T08:38:47.135Z,1642.50
2019-02-22T08:39:58.304Z,1631.25
2019-02-22T08:40:48.160Z,1608.75
2019-02-22T08:41:47.106Z,1636.88
2019-02-22T08:42:47.087Z,1715.62
2019-02-22T08:43:47.078Z,1698.75
2019-02-22T08:44:47.074Z,1653.75
2019-02-22T08:45:47.064Z,1676.25
2019-02-22T08:46:47.061Z,1726.88
2019-02-22T08:47:47.038Z,1732.50
2019-02-22T08:48:47.063Z,1659.38
2019-02-22T08:49:47.011Z,1653.75
2019-02-22T08:50:47.009Z,1771.88
2019-02-22T08:51:47.052Z,1771.88
2019-02-22T08:52:47.082Z,1743.75
2019-02-22T08:53:46.966Z,1783.12
2019-02-22T08:54:57.933Z,1760.62
2019-02-22T08:55:46.943Z,1766.25
2019-02-22T08:56:46.938Z,1800.00
2019-02-22T08:57:53.928Z,1771.88
2019-02-22T08:58:46.911Z,1766.25
2019-02-22T08:59:46.915Z,1766.25
2019-02-22T09:00:47.021Z,1856.25
2019-02-22T09:01:47.116Z,1935.00
2019-02-22T09:02:46.882Z,1929.38
2019-02-22T09:03:50.564Z,1974.38
2019-02-22T09:04:47.065Z,1935.00
2019-02-22T09:05:46.842Z,1929.38
2019-02-22T09:06:47.151Z,1985.62
2019-02-22T09:07:47.084Z,1963.12
2019-02-22T09:08:47.115Z,1951.88
2019-02-22T09:09:46.813Z,1771.88
2019-02-22T09:10:46.782Z,1732.50
2019-02-22T09:11:46.787Z,1980.00
2019-02-22T09:12:47.141Z,2070.00
2019-02-22T09:13:46.753Z,2036.25
2019-02-22T09:14:46.742Z,1985.62
2019-02-22T09:15:46.732Z,1985.62
2019-02-22T09:16:47.042Z,2103.75
2019-02-22T09:17:46.707Z,2081.25
2019-02-22T09:18:47.049Z,1980.00
2019-02-22T09:19:46.688Z,2098.12
2019-02-22T09:20:46.679Z,2171.25
2019-02-22T09:21:46.664Z,2075.62
2019-02-22T09:22:46.669Z,2081.25
2019-02-22T09:23:47.381Z,2137.50
2019-02-22T09:24:46.665Z,2120.62
2019-02-22T09:25:46.613Z,2126.25
2019-02-22T09:26:46.610Z,2131.88
2019-02-22T09:27:46.590Z,2092.50
2019-02-22T09:28:57.117Z,2154.38
2019-02-22T09:29:57.831Z,2210.62
2019-02-22T09:30:47.601Z,2160.00
2019-02-22T09:31:46.550Z,2216.25
2019-02-22T09:32:46.541Z,2199.38
2019-02-22T09:33:46.535Z,2176.88
2019-02-22T09:34:46.519Z,2205.00
2019-02-22T09:35:46.529Z,2221.88
2019-02-22T09:36:46.695Z,2210.62
2019-02-22T09:37:46.487Z,2238.75
2019-02-22T09:38:46.477Z,2323.12
2019-02-22T09:39:46.470Z,2272.50
2019-02-22T09:40:46.455Z,2323.12
2019-02-22T09:41:46.456Z,2300.62
2019-02-22T09:42:46.606Z,2233.12
2019-02-22T09:43:54.742Z,2238.75
2019-02-22T09:44:47.406Z,2272.50
2019-02-22T09:45:46.413Z,2300.62
2019-02-22T09:46:46.417Z,2373.75
2019-02-22T09:47:46.913Z,2368.12
2019-02-22T09:48:46.441Z,2396.25
2019-02-22T09:49:46.352Z,2413.12
2019-02-22T09:50:46.341Z,2418.75
2019-02-22T09:51:46.336Z,2401.88
2019-02-22T09:52:46.326Z,2396.25
2019-02-22T09:53:46.400Z,2351.25
2019-02-22T09:54:46.344Z,2379.38
2019-02-22T09:55:46.292Z,2373.75
2019-02-22T09:56:46.279Z,2368.12
2019-02-22T09:57:46.273Z,2424.38
2019-02-22T09:58:46.254Z,2373.75
2019-02-22T09:59:56.995Z,2401.88
2019-02-22T10:00:46.234Z,2362.50
2019-02-22T10:01:46.225Z,2390.62
2019-02-22T10:02:46.209Z,2463.75
2019-02-22T10:03:46.250Z,2486.25
2019-02-22T10:04:54.682Z,2486.25
2019-02-22T10:05:47.360Z,2497.50
2019-02-22T10:06:46.180Z,2486.25
2019-02-22T10:07:46.158Z,2542.50
2019-02-22T10:08:46.146Z,2593.12
2019-02-22T10:09:46.144Z,2424.38
2019-02-22T10:10:46.129Z,2424.38
2019-02-22T10:11:46.167Z,2491.88
2019-02-22T10:12:46.105Z,2475.00
2019-02-22T10:13:46.099Z,2576.25
2019-02-22T10:14:46.099Z,2531.25
2019-02-22T10:15:46.081Z,2446.88
2019-02-22T10:16:46.070Z,2458.12
2019-02-22T10:17:46.075Z,2497.50
2019-02-22T10:18:46.040Z,2514.38
2019-02-22T10:19:46.051Z,2491.88
2019-02-22T10:20:46.031Z,2491.88
2019-02-22T10:21:46.034Z,2548.12
2019-02-22T10:22:46.155Z,2536.88
2019-02-22T10:23:46.165Z,2559.38
2019-02-22T10:24:45.987Z,2525.62
2019-02-22T10:25:45.965Z,2525.62
2019-02-22T10:26:45.973Z,2615.62
2019-02-22T10:27:45.993Z,2610.00
2019-02-22T10:28:45.942Z,2581.88
2019-02-22T10:29:45.968Z,2621.25
2019-02-22T10:30:56.732Z,2565.00
2019-02-22T10:31:45.910Z,2491.88
2019-02-22T10:32:45.895Z,2553.75
2019-02-22T10:33:45.888Z,2570.62
2019-02-22T10:34:45.875Z,2559.38
2019-02-22T10:35:45.913Z,2610.00
2019-02-22T10:36:45.851Z,2418.75
2019-02-22T10:37:45.843Z,2531.25
2019-02-22T10:38:45.835Z,2649.38
2019-02-22T10:39:45.826Z,2694.38
2019-02-22T10:40:45.812Z,2587.50
2019-02-22T10:41:45.844Z,2407.50
2019-02-22T10:42:45.787Z,2458.12
2019-02-22T10:43:45.785Z,2711.25
2019-02-22T10:44:45.773Z,2593.12
2019-02-22T10:45:45.763Z,2705.62
2019-02-22T10:46:45.774Z,2806.88
2019-02-22T10:47:45.803Z,2632.50
2019-02-22T10:48:45.726Z,2469.38
2019-02-22T10:49:45.717Z,2390.62
2019-02-22T10:50:45.707Z,2486.25
2019-02-22T10:51:45.704Z,2700.00
2019-02-22T10:52:45.690Z,2891.25
2019-02-22T10:53:45.846Z,2947.50
2019-02-22T10:54:45.687Z,2767.50
2019-02-22T10:55:45.663Z,2598.75
2019-02-22T10:56:45.649Z,2424.38
2019-02-22T10:57:45.641Z,2255.62
2019-02-22T10:58:45.632Z,2300.62
2019-02-22T10:59:46.651Z,2514.38
2019-02-22T11:00:45.623Z,2559.38
2019-02-22T11:01:56.531Z,2666.25
2019-02-22T11:02:45.587Z,2902.50
2019-02-22T11:03:45.574Z,2986.88
2019-02-22T11:04:45.567Z,3093.75
2019-02-22T11:05:45.598Z,3031.88
2019-02-22T11:06:45.560Z,2716.88
2019-02-22T11:07:45.551Z,2542.50
2019-02-22T11:08:45.525Z,2317.50
2019-02-22T11:09:45.515Z,2165.62
2019-02-22T11:10:45.512Z,2131.88
2019-02-22T11:11:45.537Z,2047.50
2019-02-22T11:12:45.486Z,1501.88
2019-02-22T11:13:45.487Z,781.88
2019-02-22T11:14:45.477Z,1248.75
2019-02-22T11:15:45.475Z,2137.50
2019-02-22T11:16:45.444Z,2480.62
2019-02-22T11:17:45.474Z,2598.75
2019-02-22T11:18:45.421Z,2677.50
2019-02-22T11:19:45.410Z,2868.75
2019-02-22T11:20:45.399Z,2986.88
2019-02-22T11:21:45.390Z,3048.75
2019-02-22T11:22:45.395Z,2992.50
2019-02-22T11:23:45.421Z,3037.50
2019-02-22T11:24:45.362Z,3155.62
2019-02-22T11:25:45.358Z,3127.50
2019-02-22T11:26:45.342Z,2986.88
2019-02-22T11:27:45.326Z,2970.00
2019-02-22T11:28:45.315Z,2975.62
2019-02-22T11:29:45.343Z,2806.88
2019-02-22T11:30:45.309Z,2835.00
2019-02-22T11:31:45.288Z,2716.88
2019-02-22T11:32:55.238Z,2773.12
2019-02-22T11:33:45.270Z,2767.50
2019-02-22T11:34:45.258Z,2880.00
2019-02-22T11:35:45.290Z,2958.75
2019-02-22T11:36:45.237Z,2992.50
2019-02-22T11:37:45.222Z,2930.62
2019-02-22T11:38:45.214Z,2874.38
2019-02-22T11:39:45.199Z,2913.75
2019-02-22T11:40:45.191Z,2919.38
2019-02-22T11:41:52.602Z,2908.12
2019-02-22T11:42:45.167Z,2908.12
2019-02-22T11:43:52.149Z,2998.12
2019-02-22T11:44:45.149Z,3020.62
2019-02-22T11:45:45.135Z,2964.38
2019-02-22T11:46:45.127Z,2812.50
2019-02-22T11:47:45.167Z,2773.12
2019-02-22T11:48:45.113Z,2666.25
2019-02-22T11:49:45.094Z,2593.12
2019-02-22T11:50:45.091Z,2441.25
2019-02-22T11:51:45.074Z,2334.38
2019-02-22T11:52:45.071Z,2103.75
2019-02-22T11:53:45.167Z,1996.88
2019-02-22T11:54:45.049Z,2086.88
2019-02-22T11:55:45.052Z,2103.75
2019-02-22T11:56:45.021Z,2081.25
2019-02-22T11:57:45.051Z,2103.75
2019-02-22T11:58:45.005Z,2160.00
2019-02-22T11:59:45.029Z,2311.88
2019-02-22T12:00:44.991Z,2525.62
2019-02-22T12:01:44.977Z,2604.38
2019-02-22T12:02:45.616Z,2610.00
2019-02-22T12:03:44.960Z,2666.25
2019-02-22T12:04:44.963Z,2559.38
2019-02-22T12:05:44.977Z,2351.25
2019-02-22T12:06:44.920Z,2283.75
2019-02-22T12:07:45.618Z,2188.12
2019-02-22T12:08:44.902Z,2070.00
2019-02-22T12:09:44.899Z,2036.25
2019-02-22T12:10:44.887Z,2075.62
2019-02-22T12:11:44.910Z,2221.88
2019-02-22T12:12:44.884Z,2396.25
2019-02-22T12:13:44.850Z,2475.00
2019-02-22T12:14:54.991Z,2435.62
2019-02-22T12:15:44.823Z,2300.62
2019-02-22T12:16:44.825Z,2171.25
2019-02-22T12:17:44.840Z,2053.12
2019-02-22T12:18:44.801Z,2058.75
2019-02-22T12:19:44.781Z,2182.50
2019-02-22T12:20:44.771Z,2306.25
2019-02-22T12:21:44.769Z,2373.75
2019-02-22T12:22:52.199Z,2373.75
2019-02-22T12:23:44.745Z,2255.62
2019-02-22T12:24:44.737Z,2115.00
2019-02-22T12:25:51.714Z,2131.88
2019-02-22T12:26:52.004Z,2210.62
2019-02-22T12:27:44.738Z,2261.25
2019-02-22T12:28:44.700Z,2210.62
2019-02-22T12:29:44.677Z,2137.50
2019-02-22T12:30:44.670Z,2188.12
2019-02-22T12:31:44.657Z,2171.25
2019-02-22T12:32:44.653Z,2131.88
2019-02-22T12:33:51.824Z,2160.00
2019-02-22T12:34:44.627Z,2154.38
2019-02-22T12:35:44.619Z,2036.25
2019-02-22T12:36:44.608Z,2036.25
2019-02-22T12:37:51.593Z,2098.12
2019-02-22T12:38:44.595Z,2103.75
2019-02-22T12:39:44.614Z,2053.12
2019-02-22T12:40:44.574Z,2002.50
2019-02-22T12:41:44.623Z,1951.88
2019-02-22T12:42:44.552Z,1878.75